Time;durP1;ratioP1;P1;durP2;ratioP2;P2;SDS_P1;SDS_P2;PMS_P1;PMS_P2;Temp;Humidity;BMP_temperature;BMP_pressure;BME280_temperature;BME280_humidity;BME280_pressure;Samples;Min_cycle;Max_cycle;Signal;HPM_P1;HPM_P2
2022/07/01 00:01:37;;;;;;;;;;;25.80;99.90;;;;;;5088529;28;19911;-68
2022/07/01 00:04:02;;;;;;;;;;;25.70;99.90;;;;;;5088806;28;20391;-68
2022/07/01 00:06:28;;;;;;;;;;;25.70;99.90;;;;;;5102721;28;20342;-67
2022/07/01 00:08:54;;;;;;;;;;;25.70;99.90;;;;;;5090548;28;19912;-68
2022/07/01 00:11:19;;;;;;;;;;;25.50;99.90;;;;;;5088155;28;19922;-67
2022/07/01 00:13:45;;;;;;;;;;;25.50;99.90;;;;;;5089979;28;20357;-67
2022/07/01 00:16:11;;;;;;;;;;;25.40;99.90;;;;;;5089631;28;20365;-68
2022/07/01 00:18:36;;;;;;;;;;;25.30;99.90;;;;;;5089537;28;19912;-68
2022/07/01 00:21:02;;;;;;;;;;;25.30;99.90;;;;;;5092041;28;20359;-69
2022/07/01 00:23:28;;;;;;;;;;;25.30;99.90;;;;;;5092235;28;20290;-69
2022/07/01 00:25:54;;;;;;;;;;;25.30;99.90;;;;;;5095067;28;21736;-69
2022/07/01 00:28:20;;;;;;;;;;;25.40;99.90;;;;;;5107220;28;19919;-68
2022/07/01 00:30:46;;;;;;;;;;;25.50;99.90;;;;;;5094533;28;19961;-69
2022/07/01 00:33:12;;;;;;;;;;;25.50;99.90;;;;;;5090786;28;19923;-68
2022/07/01 00:35:38;;;;;;;;;;;25.50;99.90;;;;;;5103536;28;19915;-68
2022/07/01 00:38:04;;;;;;;;;;;25.50;99.90;;;;;;5091287;28;20378;-70
2022/07/01 00:40:30;;;;;;;;;;;25.40;99.90;;;;;;5089147;28;19959;-69
2022/07/01 00:42:56;;;;;;;;;;;25.40;99.90;;;;;;5086981;28;19912;-68
2022/07/01 00:45:21;;;;;;;;;;;25.40;99.90;;;;;;5110845;27;19988;-69
2022/07/01 00:47:47;;;;;;;;;;;25.30;99.90;;;;;;5090190;28;19912;-70
2022/07/01 00:50:15;;;;;;;;;;;25.30;99.90;;;;;;5093888;28;19907;-68
2022/07/01 00:52:41;;;;;;;;;;;25.30;99.90;;;;;;5087362;28;20396;-68
2022/07/01 00:55:07;;;;;;;;;;;25.30;99.90;;;;;;5086512;28;19937;-68
2022/07/01 00:57:34;;;;;;;;;;;25.30;99.90;;;;;;5097510;28;20281;-68
2022/07/01 01:00:08;;;;;;;;;;;25.30;99.90;;;;;;5097529;28;19919;-68
2022/07/01 01:02:35;;;;;;;;;;;25.30;99.90;;;;;;5095598;28;19998;-67
2022/07/01 01:05:02;;;;;;;;;;;25.30;99.90;;;;;;5098301;28;19947;-67
2022/07/01 01:07:28;;;;;;;;;;;25.30;99.90;;;;;;5092580;28;19919;-67
2022/07/01 01:09:54;;;;;;;;;;;25.20;99.90;;;;;;5088044;28;19907;-68
2022/07/01 01:12:19;;;;;;;;;;;25.10;99.90;;;;;;5089313;28;19916;-67
2022/07/01 01:14:45;;;;;;;;;;;25.00;99.90;;;;;;5089279;28;19907;-68
2022/07/01 01:17:12;;;;;;;;;;;25.00;99.90;;;;;;5088018;28;19922;-68
2022/07/01 01:19:38;;;;;;;;;;;25.10;99.90;;;;;;5086127;28;19931;-67
2022/07/01 01:22:03;;;;;;;;;;;25.10;99.90;;;;;;5089330;28;21481;-68
2022/07/01 01:24:29;;;;;;;;;;;24.90;99.90;;;;;;5086437;28;22343;-68
2022/07/01 01:26:55;;;;;;;;;;;24.80;99.90;;;;;;5090309;28;19914;-68
2022/07/01 01:29:24;;;;;;;;;;;24.80;99.90;;;;;;5093527;28;19937;-69
2022/07/01 01:31:49;;;;;;;;;;;24.90;99.90;;;;;;5090604;28;19916;-67
2022/07/01 01:34:15;;;;;;;;;;;24.90;99.90;;;;;;5105592;28;19998;-67
2022/07/01 01:36:40;;;;;;;;;;;24.80;99.90;;;;;;5090177;28;19919;-69
2022/07/01 01:39:14;;;;;;;;;;;24.80;99.90;;;;;;5089535;28;20282;-67
2022/07/01 01:41:40;;;;;;;;;;;24.70;99.90;;;;;;5087470;28;20335;-68
2022/07/01 01:44:05;;;;;;;;;;;24.70;99.90;;;;;;5088074;28;19915;-67
2022/07/01 01:46:31;;;;;;;;;;;24.60;99.90;;;;;;5089739;28;19943;-69
2022/07/01 01:48:57;;;;;;;;;;;24.70;99.90;;;;;;5096013;28;19914;-66
2022/07/01 01:51:23;;;;;;;;;;;24.80;99.90;;;;;;5091075;28;19911;-69
2022/07/01 01:53:48;;;;;;;;;;;24.80;99.90;;;;;;5090517;28;19939;-69
2022/07/01 01:56:14;;;;;;;;;;;24.80;99.90;;;;;;5091092;28;19912;-69
2022/07/01 01:58:42;;;;;;;;;;;24.80;99.90;;;;;;5110710;27;19966;-68
2022/07/01 02:01:11;;;;;;;;;;;24.70;99.90;;;;;;5090235;28;19908;-69
2022/07/01 02:03:41;;;;;;;;;;;24.80;99.90;;;;;;5092381;28;19908;-68
2022/07/01 02:06:07;;;;;;;;;;;24.80;99.90;;;;;;5089321;28;19908;-69
2022/07/01 02:08:46;;;;;;;;;;;24.80;99.90;;;;;;5089181;28;20323;-69
2022/07/01 02:11:12;;;;;;;;;;;24.80;99.90;;;;;;5097085;28;19920;-68
2022/07/01 02:13:38;;;;;;;;;;;24.80;99.90;;;;;;5087979;28;19918;-69
2022/07/01 02:16:03;;;;;;;;;;;24.70;99.90;;;;;;5090991;28;19971;-70
2022/07/01 02:18:30;;;;;;;;;;;24.80;99.90;;;;;;5089959;28;19990;-69
2022/07/01 02:20:55;;;;;;;;;;;24.80;99.90;;;;;;5098465;28;19908;-69
2022/07/01 02:23:21;;;;;;;;;;;24.80;99.90;;;;;;5089262;28;19965;-71
2022/07/01 02:25:47;;;;;;;;;;;24.80;99.90;;;;;;5097580;28;19908;-69
2022/07/01 02:28:13;;;;;;;;;;;24.70;99.90;;;;;;5095954;28;20002;-69
2022/07/01 02:30:39;;;;;;;;;;;24.70;99.90;;;;;;5088410;28;19943;-68
2022/07/01 02:33:05;;;;;;;;;;;24.70;99.90;;;;;;5087687;28;19920;-69
2022/07/01 02:35:31;;;;;;;;;;;24.60;99.90;;;;;;5086710;28;19926;-69
2022/07/01 02:37:57;;;;;;;;;;;24.60;99.90;;;;;;5088795;28;19908;-70
2022/07/01 02:40:22;;;;;;;;;;;24.60;99.90;;;;;;5089900;28;20435;-69
2022/07/01 02:42:48;;;;;;;;;;;24.60;99.90;;;;;;5086577;28;19908;-69
2022/07/01 02:45:14;;;;;;;;;;;24.60;99.90;;;;;;5090897;28;19912;-72
2022/07/01 02:47:40;;;;;;;;;;;24.60;99.90;;;;;;5088608;28;19920;-71
2022/07/01 02:50:07;;;;;;;;;;;24.70;99.90;;;;;;5091258;28;19916;-68
2022/07/01 02:52:34;;;;;;;;;;;24.60;99.90;;;;;;5088924;28;19922;-69
2022/07/01 02:55:00;;;;;;;;;;;24.60;99.90;;;;;;5086454;28;20357;-69
2022/07/01 02:57:25;;;;;;;;;;;24.60;99.90;;;;;;5087474;28;19916;-69
2022/07/01 02:59:51;;;;;;;;;;;24.60;99.90;;;;;;5087926;28;19950;-68
2022/07/01 03:02:17;;;;;;;;;;;24.60;99.90;;;;;;5085968;28;20442;-68
2022/07/01 03:04:43;;;;;;;;;;;24.60;99.90;;;;;;5087439;28;20254;-69
2022/07/01 03:07:10;;;;;;;;;;;24.60;99.90;;;;;;5095252;28;19911;-69
2022/07/01 03:09:35;;;;;;;;;;;24.60;99.90;;;;;;5105783;28;19912;-68
2022/07/01 03:12:24;;;;;;;;;;;24.60;99.90;;;;;;5089222;28;19923;-68
2022/07/01 03:14:47;;;;;;;;;;;24.60;99.90;;;;;;5092305;28;19907;-69
2022/07/01 03:17:12;;;;;;;;;;;24.50;99.90;;;;;;5091745;28;19924;-69
2022/07/01 03:19:38;;;;;;;;;;;24.50;99.90;;;;;;5098244;28;19908;-68
2022/07/01 03:22:03;;;;;;;;;;;24.50;99.90;;;;;;5093940;28;20010;-68
2022/07/01 03:24:29;;;;;;;;;;;24.60;99.90;;;;;;5090207;27;19924;-68
2022/07/01 03:26:54;;;;;;;;;;;24.50;99.90;;;;;;5095756;28;19951;-69
2022/07/01 03:29:20;;;;;;;;;;;24.40;99.90;;;;;;5096422;28;19922;-69
2022/07/01 03:31:45;;;;;;;;;;;24.40;99.90;;;;;;5093297;28;20284;-67
2022/07/01 03:34:11;;;;;;;;;;;24.40;99.90;;;;;;5090228;28;19916;-69
2022/07/01 03:36:36;;;;;;;;;;;24.40;99.90;;;;;;5092736;28;20382;-72
2022/07/01 03:39:04;;;;;;;;;;;24.30;99.90;;;;;;5089621;28;19943;-70
2022/07/01 03:41:30;;;;;;;;;;;24.30;99.90;;;;;;5092866;28;20006;-67
2022/07/01 03:43:55;;;;;;;;;;;24.30;99.90;;;;;;5095403;28;20380;-68
2022/07/01 03:46:21;;;;;;;;;;;24.30;99.90;;;;;;5090362;28;19916;-69
2022/07/01 03:48:46;;;;;;;;;;;24.40;99.90;;;;;;5095692;28;20382;-70
2022/07/01 03:51:12;;;;;;;;;;;24.40;99.90;;;;;;5114726;28;19908;-70
2022/07/01 03:56:21;;;;;;;;;;;24.50;99.90;;;;;;5103259;28;19961;-69
2022/07/01 03:58:47;;;;;;;;;;;24.60;99.90;;;;;;5089311;28;19916;-68
2022/07/01 04:01:13;;;;;;;;;;;24.60;99.90;;;;;;5089674;28;19958;-70
2022/07/01 04:03:38;;;;;;;;;;;24.70;99.90;;;;;;5100689;28;19985;-69
2022/07/01 04:06:04;;;;;;;;;;;24.70;99.90;;;;;;5094146;28;19994;-68
2022/07/01 04:08:30;;;;;;;;;;;24.80;99.90;;;;;;5092661;28;20834;-69
2022/07/01 04:10:56;;;;;;;;;;;24.80;99.90;;;;;;5098176;28;19912;-68
2022/07/01 04:13:22;;;;;;;;;;;24.90;99.90;;;;;;5106354;27;19927;-69
2022/07/01 04:15:48;;;;;;;;;;;24.90;99.90;;;;;;5092774;28;19907;-71
2022/07/01 04:18:14;;;;;;;;;;;24.90;99.90;;;;;;5089725;28;19985;-68
2022/07/01 04:20:39;;;;;;;;;;;24.90;99.90;;;;;;5099650;28;19912;-69
2022/07/01 04:23:05;;;;;;;;;;;25.00;99.90;;;;;;5091793;28;19908;-68
2022/07/01 04:25:31;;;;;;;;;;;25.00;99.90;;;;;;5090565;28;19916;-68
2022/07/01 04:27:57;;;;;;;;;;;25.00;99.90;;;;;;5090668;28;19915;-68
2022/07/01 04:30:22;;;;;;;;;;;25.10;99.90;;;;;;5089195;28;19907;-68
2022/07/01 04:32:48;;;;;;;;;;;25.10;99.90;;;;;;5089686;28;19919;-69
2022/07/01 04:35:14;;;;;;;;;;;25.10;99.90;;;;;;5089366;28;20383;-69
2022/07/01 04:37:42;;;;;;;;;;;25.30;99.90;;;;;;5090880;28;19916;-70
2022/07/01 04:40:08;;;;;;;;;;;25.30;99.90;;;;;;5099399;28;19907;-69
2022/07/01 04:42:33;;;;;;;;;;;25.30;99.90;;;;;;5089541;28;19915;-70
2022/07/01 04:44:59;;;;;;;;;;;25.30;99.90;;;;;;5090386;28;21659;-69
2022/07/01 04:47:25;;;;;;;;;;;25.30;99.90;;;;;;5087776;28;19915;-69
2022/07/01 04:49:50;;;;;;;;;;;25.40;99.90;;;;;;5093259;28;19907;-69
2022/07/01 04:52:16;;;;;;;;;;;25.40;99.90;;;;;;5088044;28;20004;-68
2022/07/01 04:54:41;;;;;;;;;;;25.50;99.90;;;;;;5090922;28;19908;-68
2022/07/01 04:57:07;;;;;;;;;;;25.50;99.90;;;;;;5092344;28;19919;-68
2022/07/01 04:59:32;;;;;;;;;;;25.50;99.90;;;;;;5087506;28;19919;-69
2022/07/01 05:01:59;;;;;;;;;;;25.60;99.90;;;;;;5096182;28;19915;-70
2022/07/01 05:04:26;;;;;;;;;;;25.60;99.90;;;;;;5094295;28;19914;-69
2022/07/01 05:06:51;;;;;;;;;;;25.70;99.90;;;;;;5090438;28;20356;-68
2022/07/01 05:09:17;;;;;;;;;;;25.70;99.90;;;;;;5090684;28;20124;-70
2022/07/01 05:12:08;;;;;;;;;;;25.80;99.90;;;;;;5106893;27;19939;-71
2022/07/01 05:14:41;;;;;;;;;;;25.80;99.90;;;;;;5103832;28;19908;-68
2022/07/01 05:17:06;;;;;;;;;;;25.90;99.90;;;;;;5113267;28;19903;-69
2022/07/01 05:22:16;;;;;;;;;;;26.10;99.90;;;;;;5094951;28;20348;-69
2022/07/01 05:24:42;;;;;;;;;;;26.20;99.90;;;;;;5094362;28;19904;-68
2022/07/01 05:27:07;;;;;;;;;;;26.20;99.90;;;;;;5096868;28;19927;-68
2022/07/01 05:29:33;;;;;;;;;;;26.20;99.90;;;;;;5091833;28;19904;-69
2022/07/01 05:31:59;;;;;;;;;;;26.30;99.90;;;;;;5091251;28;20280;-70
2022/07/01 05:34:24;;;;;;;;;;;26.40;99.90;;;;;;5112459;28;19908;-68
2022/07/01 05:36:50;;;;;;;;;;;26.50;99.90;;;;;;5108121;28;19951;-69
2022/07/01 05:39:15;;;;;;;;;;;26.50;99.90;;;;;;5102827;28;20006;-68
2022/07/01 05:41:41;;;;;;;;;;;26.60;99.90;;;;;;5097909;27;20010;-69
2022/07/01 05:44:07;;;;;;;;;;;26.60;99.90;;;;;;5103435;28;19974;-71
2022/07/01 05:46:32;;;;;;;;;;;26.80;99.90;;;;;;5098440;28;19908;-70
2022/07/01 05:49:03;;;;;;;;;;;26.80;99.90;;;;;;5104139;28;19944;-70
2022/07/01 05:51:28;;;;;;;;;;;26.90;99.90;;;;;;5100187;28;19908;-69
2022/07/01 05:53:55;;;;;;;;;;;26.90;99.90;;;;;;5105081;28;19907;-70
2022/07/01 05:56:21;;;;;;;;;;;26.90;99.90;;;;;;5108116;28;19912;-70
2022/07/01 05:58:47;;;;;;;;;;;26.90;99.90;;;;;;5102638;28;20381;-68
2022/07/01 06:01:13;;;;;;;;;;;26.80;99.90;;;;;;5105991;28;20004;-67
2022/07/01 06:03:38;;;;;;;;;;;26.80;99.90;;;;;;5106540;28;19908;-69
2022/07/01 06:06:04;;;;;;;;;;;26.80;99.90;;;;;;5110382;28;19915;-68
2022/07/01 06:08:30;;;;;;;;;;;26.90;99.90;;;;;;5098604;28;20377;-69
2022/07/01 06:10:56;;;;;;;;;;;27.00;99.90;;;;;;5111627;28;19986;-69
2022/07/01 06:13:21;;;;;;;;;;;27.10;99.90;;;;;;5123677;27;19931;-66
2022/07/01 06:15:47;;;;;;;;;;;27.30;99.90;;;;;;5107017;28;19999;-68
2022/07/01 06:18:22;;;;;;;;;;;27.40;99.90;;;;;;5107847;28;19914;-70
2022/07/01 06:20:47;;;;;;;;;;;27.50;99.90;;;;;;5108094;28;19908;-70
2022/07/01 06:23:13;;;;;;;;;;;27.60;99.90;;;;;;5109282;28;19915;-69
2022/07/01 06:25:38;;;;;;;;;;;27.70;99.90;;;;;;5109333;28;20493;-70
2022/07/01 06:28:04;;;;;;;;;;;27.80;99.90;;;;;;5108261;28;19930;-69
2022/07/01 06:30:30;;;;;;;;;;;27.90;99.90;;;;;;5110891;28;19952;-68
2022/07/01 06:32:55;;;;;;;;;;;28.00;99.90;;;;;;5109862;28;20289;-68
2022/07/01 06:35:21;;;;;;;;;;;28.10;99.90;;;;;;5101690;28;20224;-68
2022/07/01 06:37:46;;;;;;;;;;;28.20;99.90;;;;;;5109440;28;20368;-61
2022/07/01 06:40:12;;;;;;;;;;;28.30;99.90;;;;;;5109834;28;19911;-60
2022/07/01 06:42:38;;;;;;;;;;;28.40;99.90;;;;;;5111289;28;19949;-61
2022/07/01 06:45:03;;;;;;;;;;;28.50;99.90;;;;;;5107282;28;19908;-62
2022/07/01 06:47:30;;;;;;;;;;;28.50;99.90;;;;;;5107158;28;19926;-66
2022/07/01 06:49:56;;;;;;;;;;;28.60;99.90;;;;;;5107044;28;19904;-64
2022/07/01 06:52:21;;;;;;;;;;;28.70;99.90;;;;;;5109520;28;20387;-64
2022/07/01 06:54:47;;;;;;;;;;;28.70;99.90;;;;;;5106184;28;19966;-64
2022/07/01 06:57:12;;;;;;;;;;;28.80;99.90;;;;;;5114772;28;20300;-63
2022/07/01 06:59:38;;;;;;;;;;;28.90;99.90;;;;;;5111038;28;19908;-64
2022/07/01 07:02:07;;;;;;;;;;;29.00;99.90;;;;;;5111713;27;20392;-65
2022/07/01 07:04:33;;;;;;;;;;;29.00;99.90;;;;;;5112873;28;19951;-65
2022/07/01 07:06:58;;;;;;;;;;;29.10;99.90;;;;;;5114100;28;19969;-64
2022/07/01 07:09:24;;;;;;;;;;;29.20;99.90;;;;;;5116005;28;19904;-64
2022/07/01 07:11:49;;;;;;;;;;;29.20;99.90;;;;;;5115036;28;19986;-65
2022/07/01 07:14:15;;;;;;;;;;;29.30;99.90;;;;;;5115220;28;20008;-64
2022/07/01 07:16:41;;;;;;;;;;;29.40;99.90;;;;;;5114441;28;20410;-65
2022/07/01 07:19:07;;;;;;;;;;;29.50;99.90;;;;;;5110415;28;19949;-66
2022/07/01 07:21:33;;;;;;;;;;;29.40;99.90;;;;;;5114716;28;19911;-64
2022/07/01 07:23:58;;;;;;;;;;;29.50;99.90;;;;;;5104981;27;19908;-64
2022/07/01 07:26:24;;;;;;;;;;;29.60;99.90;;;;;;5114719;28;20308;-65
2022/07/01 07:28:50;;;;;;;;;;;29.70;99.90;;;;;;5113603;28;19967;-65
2022/07/01 07:31:16;;;;;;;;;;;29.60;99.90;;;;;;5115375;28;20524;-65
2022/07/01 07:33:41;;;;;;;;;;;29.70;99.90;;;;;;5115446;28;19947;-64
2022/07/01 07:36:07;;;;;;;;;;;29.70;99.90;;;;;;5114888;28;19912;-64
2022/07/01 07:38:32;;;;;;;;;;;29.60;99.90;;;;;;5119077;28;19919;-64
2022/07/01 07:41:03;;;;;;;;;;;29.70;99.90;;;;;;5119515;28;19949;-66
2022/07/01 07:43:29;;;;;;;;;;;29.60;99.90;;;;;;5116581;28;19960;-63
2022/07/01 07:45:55;;;;;;;;;;;29.70;99.90;;;;;;5115355;28;19904;-64
2022/07/01 07:48:20;;;;;;;;;;;29.70;99.90;;;;;;5113613;27;19904;-63
2022/07/01 07:50:47;;;;;;;;;;;29.70;99.90;;;;;;5115307;28;19990;-64
2022/07/01 07:53:13;;;;;;;;;;;29.70;99.90;;;;;;5114613;28;19933;-64
2022/07/01 07:55:38;;;;;;;;;;;29.80;99.90;;;;;;5109871;28;19911;-63
2022/07/01 07:58:05;;;;;;;;;;;29.70;99.90;;;;;;5114989;28;19995;-68
2022/07/01 08:00:30;;;;;;;;;;;29.80;99.90;;;;;;5115096;28;19904;-64
2022/07/01 08:02:56;;;;;;;;;;;29.90;99.90;;;;;;5110500;28;19912;-64
2022/07/01 08:05:22;;;;;;;;;;;30.00;99.90;;;;;;5108634;28;19908;-66
2022/07/01 08:07:47;;;;;;;;;;;30.10;99.90;;;;;;5115956;28;19952;-65
2022/07/01 08:10:13;;;;;;;;;;;30.10;99.90;;;;;;5115255;28;19911;-64
2022/07/01 08:12:39;;;;;;;;;;;30.10;99.90;;;;;;5114573;28;19908;-64
2022/07/01 08:15:05;;;;;;;;;;;30.20;99.90;;;;;;5098455;28;19904;-64
2022/07/01 08:17:31;;;;;;;;;;;30.30;99.90;;;;;;5115488;28;19903;-65
2022/07/01 08:19:57;;;;;;;;;;;30.40;99.90;;;;;;5118758;28;19928;-64
2022/07/01 08:22:22;;;;;;;;;;;30.40;99.90;;;;;;5118503;28;19908;-65
2022/07/01 08:24:48;;;;;;;;;;;30.50;99.90;;;;;;5118389;28;20273;-67
2022/07/01 08:27:14;;;;;;;;;;;30.60;99.90;;;;;;5115214;28;19904;-65
2022/07/01 08:29:39;;;;;;;;;;;30.70;99.90;;;;;;5114371;28;20457;-65
2022/07/01 08:32:06;;;;;;;;;;;30.80;99.90;;;;;;5115873;28;19907;-64
2022/07/01 08:34:31;;;;;;;;;;;30.90;99.90;;;;;;5114079;28;19961;-65
2022/07/01 08:36:57;;;;;;;;;;;30.80;99.90;;;;;;5114343;28;19912;-66
2022/07/01 08:39:23;;;;;;;;;;;30.60;99.90;;;;;;5114933;28;19934;-66
2022/07/01 08:41:48;;;;;;;;;;;30.40;99.90;;;;;;5113428;28;19904;-67
2022/07/01 08:44:14;;;;;;;;;;;30.40;99.90;;;;;;5115806;28;19910;-67
2022/07/01 08:46:40;;;;;;;;;;;30.40;99.90;;;;;;5114220;28;19907;-68
2022/07/01 08:49:06;;;;;;;;;;;30.50;99.90;;;;;;5116847;28;19910;-68
2022/07/01 08:51:31;;;;;;;;;;;30.60;99.90;;;;;;5109100;28;19908;-68
2022/07/01 08:53:57;;;;;;;;;;;30.70;99.90;;;;;;5113281;28;19908;-66
2022/07/01 08:56:41;;;;;;;;;;;30.70;99.90;;;;;;5113607;28;19904;-65
2022/07/01 08:59:07;;;;;;;;;;;30.50;99.90;;;;;;5112452;28;19962;-67
2022/07/01 09:01:33;;;;;;;;;;;30.60;99.90;;;;;;5114071;28;19912;-66
2022/07/01 09:04:14;;;;;;;;;;;30.80;99.90;;;;;;5095098;28;19910;-66
2022/07/01 09:06:40;;;;;;;;;;;30.90;99.90;;;;;;5113382;28;19994;-66
2022/07/01 09:09:12;;;;;;;;;;;31.00;99.90;;;;;;5114335;28;20374;-65
2022/07/01 09:11:43;;;;;;;;;;;30.90;99.90;;;;;;5112892;28;19907;-64
2022/07/01 09:14:09;;;;;;;;;;;31.00;99.90;;;;;;5112794;28;19911;-67
2022/07/01 09:16:48;;;;;;;;;;;30.80;99.90;;;;;;5116498;28;19903;-64
2022/07/01 09:19:15;;;;;;;;;;;30.70;99.90;;;;;;5115365;28;19904;-63
2022/07/01 09:21:41;;;;;;;;;;;30.50;99.90;;;;;;5113774;28;19918;-64
2022/07/01 09:24:25;;;;;;;;;;;30.60;99.90;;;;;;5115277;28;19907;-62
2022/07/01 09:26:53;;;;;;;;;;;30.60;99.90;;;;;;5118228;28;19903;-65
2022/07/01 09:29:19;;;;;;;;;;;30.60;99.90;;;;;;5119748;28;19982;-64
2022/07/01 09:31:49;;;;;;;;;;;30.50;99.90;;;;;;5118167;28;19954;-64
2022/07/01 09:34:15;;;;;;;;;;;30.60;99.90;;;;;;5116227;28;19911;-64
2022/07/01 09:36:40;;;;;;;;;;;30.50;99.90;;;;;;5110263;28;19908;-63
2022/07/01 09:39:06;;;;;;;;;;;30.40;99.90;;;;;;5115219;28;19903;-64
2022/07/01 09:41:35;;;;;;;;;;;30.00;99.90;;;;;;5113213;28;20283;-63
2022/07/01 09:44:06;;;;;;;;;;;29.30;99.90;;;;;;5114476;28;19904;-64
2022/07/01 09:46:32;;;;;;;;;;;29.10;99.90;;;;;;5113573;28;19967;-63
2022/07/01 09:48:57;;;;;;;;;;;29.00;99.90;;;;;;5111714;28;19950;-62
2022/07/01 09:51:23;;;;;;;;;;;29.10;99.90;;;;;;5113898;28;19904;-62
2022/07/01 09:53:49;;;;;;;;;;;29.20;99.90;;;;;;5114328;28;19915;-64
2022/07/01 09:56:14;;;;;;;;;;;29.00;99.90;;;;;;5113246;28;19966;-61
2022/07/01 09:58:42;;;;;;;;;;;28.80;99.90;;;;;;5115482;28;19908;-62
2022/07/01 10:01:08;;;;;;;;;;;28.80;99.90;;;;;;5114490;28;19904;-62
2022/07/01 10:03:36;;;;;;;;;;;28.90;99.90;;;;;;5116961;28;19960;-64
2022/07/01 10:06:20;;;;;;;;;;;29.00;99.90;;;;;;5111425;28;19904;-63
2022/07/01 10:08:49;;;;;;;;;;;29.20;99.90;;;;;;5107347;28;20401;-64
2022/07/01 10:11:24;;;;;;;;;;;29.40;99.90;;;;;;5114975;28;19905;-63
2022/07/01 10:13:50;;;;;;;;;;;29.50;99.90;;;;;;5113186;28;19912;-63
2022/07/01 10:16:16;;;;;;;;;;;29.50;99.90;;;;;;5112474;28;19918;-63
2022/07/01 10:18:42;;;;;;;;;;;29.20;99.90;;;;;;5112495;28;19911;-62
2022/07/01 10:21:08;;;;;;;;;;;29.20;99.90;;;;;;5111657;28;19904;-62
2022/07/01 10:23:37;;;;;;;;;;;29.40;99.90;;;;;;5112674;28;19904;-63
2022/07/01 10:26:04;;;;;;;;;;;29.50;99.90;;;;;;5112734;28;19903;-63
2022/07/01 10:28:47;;;;;;;;;;;29.50;99.90;;;;;;5116611;28;19945;-62
2022/07/01 10:31:15;;;;;;;;;;;29.50;99.90;;;;;;5116432;28;19904;-63
2022/07/01 10:33:53;;;;;;;;;;;29.60;99.90;;;;;;5116350;28;19954;-63
2022/07/01 10:36:22;;;;;;;;;;;29.30;99.90;;;;;;5115866;28;19912;-62
2022/07/01 10:39:00;;;;;;;;;;;29.20;99.90;;;;;;5114037;28;19961;-63
2022/07/01 10:41:26;;;;;;;;;;;29.60;99.90;;;;;;5115993;28;19903;-63
2022/07/01 10:43:53;;;;;;;;;;;29.40;99.90;;;;;;5116353;28;19998;-65
2022/07/01 10:46:40;;;;;;;;;;;29.50;99.90;;;;;;5116080;28;19926;-62
2022/07/01 10:49:13;;;;;;;;;;;29.50;99.90;;;;;;5105194;28;19910;-62
2022/07/01 10:51:52;;;;;;;;;;;29.30;99.90;;;;;;5113585;28;19947;-64
2022/07/01 10:54:36;;;;;;;;;;;29.30;99.90;;;;;;5115450;28;19927;-63
2022/07/01 10:57:22;;;;;;;;;;;29.10;99.90;;;;;;5116071;28;19957;-64
2022/07/01 10:59:56;;;;;;;;;;;28.90;99.90;;;;;;5115618;28;19903;-63
2022/07/01 11:02:48;;;;;;;;;;;28.90;99.90;;;;;;5115566;28;19992;-63
2022/07/01 11:05:14;;;;;;;;;;;28.90;99.90;;;;;;5111142;28;20310;-63
2022/07/01 11:07:42;;;;;;;;;;;28.90;99.90;;;;;;5115483;28;19976;-61
2022/07/01 11:10:10;;;;;;;;;;;28.70;99.90;;;;;;5115394;28;19980;-64
2022/07/01 11:12:36;;;;;;;;;;;28.60;99.90;;;;;;5115106;28;20425;-63
2022/07/01 11:15:02;;;;;;;;;;;28.50;99.90;;;;;;5115395;28;19903;-64
2022/07/01 11:17:28;;;;;;;;;;;28.40;99.90;;;;;;5115098;28;20003;-61
2022/07/01 11:19:58;;;;;;;;;;;28.50;99.90;;;;;;5114263;28;19965;-61
2022/07/01 11:22:25;;;;;;;;;;;28.70;99.90;;;;;;5112664;28;19903;-63
2022/07/01 11:24:58;;;;;;;;;;;28.60;99.90;;;;;;5110660;28;19926;-61
2022/07/01 11:27:24;;;;;;;;;;;28.60;99.90;;;;;;5114706;28;19903;-60
2022/07/01 11:29:57;;;;;;;;;;;28.50;99.90;;;;;;5112906;28;19952;-59
2022/07/01 11:32:33;;;;;;;;;;;28.60;99.90;;;;;;5114675;28;19912;-57
2022/07/01 11:35:01;;;;;;;;;;;28.60;99.90;;;;;;5114600;28;19988;-60
2022/07/01 11:40:31;;;;;;;;;;;29.00;99.90;;;;;;5051372;28;19905;-57
2022/07/01 11:42:57;;;;;;;;;;;29.10;99.90;;;;;;5051348;28;19905;-60
2022/07/01 11:45:24;;;;;;;;;;;28.90;99.90;;;;;;5080248;28;19915;-60
2022/07/01 11:47:49;;;;;;;;;;;28.90;99.90;;;;;;5114540;28;19908;-56
2022/07/01 11:50:15;;;;;;;;;;;28.90;99.90;;;;;;5114262;28;20013;-58
2022/07/01 11:52:41;;;;;;;;;;;29.20;99.90;;;;;;5114517;28;19914;-61
2022/07/01 11:55:07;;;;;;;;;;;29.30;99.90;;;;;;5113091;28;20370;-60
2022/07/01 11:57:34;;;;;;;;;;;29.40;99.90;;;;;;5114251;28;19903;-60
2022/07/01 12:00:08;;;;;;;;;;;29.70;99.90;;;;;;5106236;28;19995;-59
2022/07/01 12:02:33;;;;;;;;;;;29.70;99.90;;;;;;5105487;28;19915;-57
2022/07/01 12:04:59;;;;;;;;;;;29.60;99.90;;;;;;5113707;28;19912;-62
2022/07/01 12:07:26;;;;;;;;;;;29.90;99.90;;;;;;5114058;28;19904;-60
2022/07/01 12:09:51;;;;;;;;;;;30.10;99.90;;;;;;5113873;28;19953;-59
2022/07/01 12:12:18;;;;;;;;;;;30.20;99.90;;;;;;5113983;28;19962;-62
2022/07/01 12:14:52;;;;;;;;;;;30.30;99.90;;;;;;5114202;28;20405;-59
2022/07/01 12:17:17;;;;;;;;;;;30.30;99.90;;;;;;5113486;28;19927;-61
2022/07/01 12:19:44;;;;;;;;;;;30.20;99.90;;;;;;5113810;28;19991;-61
2022/07/01 12:22:11;;;;;;;;;;;29.90;99.90;;;;;;5106816;28;19908;-63
2022/07/01 12:24:37;;;;;;;;;;;29.90;99.90;;;;;;5109520;28;19956;-63
2022/07/01 12:27:04;;;;;;;;;;;30.20;99.90;;;;;;5111544;28;19953;-63
2022/07/01 12:29:50;;;;;;;;;;;30.20;99.90;;;;;;5108934;28;20190;-63
2022/07/01 12:32:18;;;;;;;;;;;30.20;99.90;;;;;;5100662;27;19916;-63
2022/07/01 12:34:45;;;;;;;;;;;30.10;99.90;;;;;;5112485;27;20018;-63
2022/07/01 12:37:15;;;;;;;;;;;30.00;99.90;;;;;;5113466;27;19907;-63
2022/07/01 12:39:41;;;;;;;;;;;30.10;99.90;;;;;;5108464;28;19908;-62
2022/07/01 12:42:07;;;;;;;;;;;30.30;99.90;;;;;;5107498;28;20002;-62
2022/07/01 12:44:33;;;;;;;;;;;29.90;99.90;;;;;;5110902;28;20443;-62
2022/07/01 12:46:58;;;;;;;;;;;29.90;99.90;;;;;;5116171;28;20006;-62
2022/07/01 12:49:24;;;;;;;;;;;29.80;99.90;;;;;;5109213;28;19908;-62
2022/07/01 12:51:50;;;;;;;;;;;29.90;99.90;;;;;;5107057;28;19957;-62
2022/07/01 12:54:33;;;;;;;;;;;30.00;99.90;;;;;;5110144;28;20322;-61
2022/07/01 12:56:59;;;;;;;;;;;30.00;99.90;;;;;;5106654;28;19911;-60
2022/07/01 12:59:25;;;;;;;;;;;30.00;99.90;;;;;;5110313;28;20005;-67
2022/07/01 13:01:51;;;;;;;;;;;30.30;99.90;;;;;;5111551;28;19955;-68
2022/07/01 13:04:23;;;;;;;;;;;30.50;99.90;;;;;;5109060;28;20014;-67
2022/07/01 13:06:48;;;;;;;;;;;30.60;99.90;;;;;;5109799;28;20327;-68
2022/07/01 13:09:14;;;;;;;;;;;30.30;99.90;;;;;;5107178;27;19915;-66
2022/07/01 13:11:40;;;;;;;;;;;30.00;99.90;;;;;;5112723;28;19934;-66
2022/07/01 13:14:05;;;;;;;;;;;29.70;99.90;;;;;;5112973;28;19912;-68
2022/07/01 13:16:31;;;;;;;;;;;29.70;99.90;;;;;;5112632;28;19939;-66
2022/07/01 13:18:56;;;;;;;;;;;29.90;99.90;;;;;;5108752;28;19907;-67
2022/07/01 13:21:22;;;;;;;;;;;29.80;99.90;;;;;;5108237;28;19907;-67
2022/07/01 13:23:48;;;;;;;;;;;29.70;99.90;;;;;;5111561;28;19904;-67
2022/07/01 13:26:13;;;;;;;;;;;29.80;99.90;;;;;;5107229;28;19904;-69
2022/07/01 13:28:39;;;;;;;;;;;30.10;99.90;;;;;;5109110;28;19951;-66
2022/07/01 13:31:04;;;;;;;;;;;30.30;99.90;;;;;;5105061;28;19908;-67
2022/07/01 13:33:30;;;;;;;;;;;30.30;99.90;;;;;;5104578;28;20554;-69
2022/07/01 13:35:57;;;;;;;;;;;30.30;99.90;;;;;;5097298;28;20007;-67
2022/07/01 13:38:23;;;;;;;;;;;30.40;99.90;;;;;;5110853;28;19908;-67
2022/07/01 13:40:49;;;;;;;;;;;30.60;99.90;;;;;;5103855;27;19918;-67
2022/07/01 13:43:16;;;;;;;;;;;30.40;99.90;;;;;;5106948;28;20356;-68
2022/07/01 13:45:42;;;;;;;;;;;30.10;99.90;;;;;;5107151;28;20365;-69
2022/07/01 13:48:08;;;;;;;;;;;30.20;99.90;;;;;;5108042;28;19934;-68
2022/07/01 13:50:33;;;;;;;;;;;30.40;99.90;;;;;;5106210;28;19918;-69
2022/07/01 13:52:59;;;;;;;;;;;30.60;99.90;;;;;;5107779;28;20269;-67
2022/07/01 13:55:24;;;;;;;;;;;30.80;99.90;;;;;;5110800;28;20361;-67
2022/07/01 13:57:50;;;;;;;;;;;30.80;99.90;;;;;;5110051;28;19910;-67
2022/07/01 14:00:17;;;;;;;;;;;31.00;99.90;;;;;;5108672;28;20378;-66
2022/07/01 14:02:43;;;;;;;;;;;31.00;99.90;;;;;;5108403;28;19908;-67
2022/07/01 14:05:09;;;;;;;;;;;30.70;99.90;;;;;;5110682;28;20296;-66
2022/07/01 14:07:34;;;;;;;;;;;30.60;99.90;;;;;;5112255;28;19998;-67
2022/07/01 14:10:00;;;;;;;;;;;30.50;99.90;;;;;;5107968;28;19919;-67
2022/07/01 14:12:26;;;;;;;;;;;30.60;99.90;;;;;;5104194;28;19965;-67
2022/07/01 14:14:53;;;;;;;;;;;30.90;99.90;;;;;;5106689;28;19907;-67
2022/07/01 14:17:18;;;;;;;;;;;30.80;99.90;;;;;;5099004;28;19969;-68
2022/07/01 14:19:44;;;;;;;;;;;30.50;99.90;;;;;;5107127;28;20353;-67
2022/07/01 14:22:10;;;;;;;;;;;30.30;99.90;;;;;;5108442;28;20271;-66
2022/07/01 14:24:35;;;;;;;;;;;30.20;99.90;;;;;;5114391;28;20077;-66